Data for 07/26/2007

Time Sea-Level Adjusted Pressure Absolute Pressure Temperature Relative Humidity Dew Point   
(mb) (inHg) (mb) (inHg) (C) (F) (%) (C) (F)
00:05 1021 30.15 850 25.1 17.8 64.1 83 15 59
00:10 1021 30.15 850 25.1 17.8 64 84 15.1 59.1
00:15 1021 30.15 850 25.1 17.8 64 82 14.7 58.4
00:20 1021 30.15 850 25.1 17.8 64.1 79 14.1 57.4
00:25 1020 30.12 850 25.1 17.8 64.1 78 13.9 57.1
00:30 1020 30.12 849 25.07 17.7 63.8 78 13.8 56.9
00:35 1021 30.15 850 25.1 17.6 63.6 79 13.9 57
00:40 1021 30.15 850 25.1 17.7 63.8 77 13.6 56.4
00:45 1021 30.15 850 25.1 17.8 64.1 76 13.6 56.4
00:50 1021 30.15 850 25.1 17.8 64.1 75 13.4 56.1
00:55 1021 30.15 850 25.1 17.8 64.1 75 13.4 56.1
01:00 1021 30.15 850 25.1 17.5 63.6 75 13.1 55.6
01:05 1021 30.15 850 25.1 17.5 63.5 75 13 55.3
01:10 1021 30.15 850 25.1 17.5 63.4 74 12.9 55.2
01:15 1021 30.15 850 25.1 17.4 63.3 75 13 55.4
01:20 1021 30.15 850 25.1 17.4 63.3 74 12.7 54.9
01:25 1021 30.15 850 25.1 17.6 63.6 74 12.9 55.2
01:30 1021 30.15 850 25.1 17.5 63.5 75 13.2 55.7
01:35 1021 30.15 850 25.1 17.4 63.2 75 13 55.4
01:40 1021 30.15 850 25.1 17.4 63.3 75 13 55.4
01:45 1021 30.15 850 25.1 17.4 63.2 75 13 55.4
01:50 1021 30.15 850 25.1 17.4 63.3 75 12.9 55.2
01:55 1021 30.15 850 25.1 17.4 63.3 75 12.9 55.2
02:00 1021 30.15 850 25.1 17.5 63.4 73 12.7 54.8
02:05 1021 30.15 850 25.1 17.7 63.8 72 12.5 54.5
02:10 1021 30.15 850 25.1 17.8 64.1 71 12.6 54.8
02:15 1021 30.15 850 25.1 17.9 64.1 71 12.6 54.6
02:20 1021 30.15 850 25.1 18 64.3 70 12.4 54.4
02:25 1021 30.15 850 25.1 18 64.4 70 12.4 54.4
02:30 1021 30.15 850 25.1 18 64.4 69 12.3 54.1
02:35 1021 30.15 850 25.1 18.2 64.8 68 12.4 54.3
02:40 1021 30.15 850 25.1 18.3 64.9 68 12.3 54.2
02:45 1021 30.15 850 25.1 18.4 65.2 70 12.9 55.3
02:50 1021 30.15 850 25.1 18.3 64.9 72 13.2 55.7
02:55 1021 30.15 850 25.1 18 64.4 74 13.3 56
03:00 1021 30.15 850 25.1 17.8 64.1 75 13.5 56.3
03:05 1021 30.15 850 25.1 17.7 63.8 77 13.5 56.4
03:10 1021 30.15 850 25.1 17.5 63.5 77 13.5 56.3
03:15 1021 30.15 850 25.1 17.4 63.4 78 13.6 56.4
03:20 1021 30.15 850 25.1 17.4 63.3 78 13.5 56.3
03:25 1021 30.15 850 25.1 17.4 63.3 77 13.5 56.2
03:30 1021 30.15 850 25.1 17.4 63.3 77 13.4 56.1
03:35 1021 30.15 850 25.1 17.4 63.3 77 13.3 56
03:40 1021 30.15 850 25.1 17.3 63.2 77 13.3 56
03:45 1021 30.15 850 25.1 17.3 63.1 77 13.3 56
03:50 1021 30.15 850 25.1 17.3 63.1 77 13.2 55.8
03:55 1021 30.15 850 25.1 17.3 63.1 77 13.2 55.8
04:00 1021 30.15 850 25.1 17.3 63.1 77 13.2 55.8
04:05 1021 30.15 850 25.1 17.2 62.9 77 13.1 55.6
04:10 1021 30.15 850 25.1 17.1 62.8 77 13 55.5
04:15 1021 30.15 850 25.1 17.1 62.7 76 12.9 55.2
04:20 1021 30.15 850 25.1 17.1 62.8 76 12.9 55.3
04:25 1021 30.15 850 25.1 17 62.6 76 12.9 55.2
04:30 1021 30.15 850 25.1 17 62.7 75 12.6 54.7
04:35 1021 30.15 850 25.1 17.1 62.9 75 12.7 54.8
04:40 1021 30.15 850 25.1 17.2 62.9 75 12.7 54.9
04:45 1021 30.15 850 25.1 17.2 63 75 12.8 55
04:50 1021 30.15 850 25.1 17.2 62.9 75 12.8 55
04:55 1021 30.15 850 25.1 17.2 62.9 75 12.8 55.1
05:00 1021 30.15 850 25.1 17.1 62.8 75 12.7 54.9
05:05 1021 30.15 851 25.13 17.1 62.8 75 12.8 55
05:10 1021 30.15 851 25.13 17.1 62.8 75 12.8 55
05:15 1021 30.15 851 25.13 17.1 62.8 76 12.9 55.2
05:20 1021 30.15 850 25.1 17 62.6 76 12.9 55.2
05:25 1021 30.15 850 25.1 16.9 62.4 77 12.9 55.2
05:30 1021 30.15 850 25.1 16.8 62.3 77 12.8 55
05:35 1021 30.15 850 25.1 16.9 62.3 77 12.8 55
05:40 1021 30.15 851 25.13 16.9 62.4 76 12.7 54.9
05:45 1022 30.18 851 25.13 17 62.5 76 12.7 54.9
05:50 1022 30.18 851 25.13 17.1 62.7 76 12.8 55
05:55 1022 30.18 851 25.13 17.1 62.7 76 12.8 55
06:00 1022 30.18 851 25.13 17.1 62.8 76 12.9 55.2
06:05 1022 30.18 851 25.13 17.1 62.8 76 12.9 55.3
06:10 1022 30.18 851 25.13 17.1 62.7 77 13 55.4
06:15 1022 30.18 851 25.13 17.1 62.8 77 13 55.4
06:20 1022 30.18 851 25.13 17.1 62.8 77 13.1 55.6
06:25 1022 30.18 851 25.13 17.1 62.9 77 13.1 55.6
06:30 1022 30.18 851 25.13 17.2 62.9 77 13.2 55.7
06:35 1022 30.18 851 25.13 17.3 63.1 76 13.1 55.6
06:40 1022 30.18 851 25.13 17.5 63.4 76 13.2 55.8
06:45 1022 30.18 851 25.13 17.5 63.6 76 13.3 55.9
06:50 1022 30.18 851 25.13 17.6 63.6 76 13.3 55.9
06:55 1022 30.18 851 25.13 17.6 63.6 76 13.4 56.1
07:00 1022 30.18 851 25.13 17.5 63.4 77 13.4 56.1
07:05 1022 30.18 851 25.13 17.3 63.1 78 13.4 56.1
07:10 1022 30.18 851 25.13 17.2 63 78 13.3 56
07:15 1022 30.18 851 25.13 17.2 62.9 78 13.3 56
07:20 1022 30.18 851 25.13 17.2 63 78 13.4 56.1
07:25 1022 30.18 851 25.13 17.4 63.2 77 13.4 56.1
07:30 1022 30.18 851 25.13 17.6 63.6 77 13.5 56.2
07:35 1022 30.18 851 25.13 17.6 63.7 80 14.2 57.6
07:40 1022 30.18 851 25.13 17.5 63.6 78 13.6 56.5
07:45 1022 30.18 851 25.13 17.4 63.3 78 13.6 56.5
07:50 1022 30.18 851 25.13 17.5 63.5 78 13.6 56.5
07:55 1022 30.18 851 25.13 17.6 63.6 78 13.7 56.6
08:00 1022 30.18 851 25.13 17.8 64 77 13.7 56.6
08:05 1022 30.18 851 25.13 17.9 64.1 77 13.8 56.8
08:10 1022 30.18 851 25.13 18 64.4 76 13.8 56.9
08:15 1022 30.18 851 25.13 18.3 64.9 74 13.7 56.6
08:20 1022 30.18 851 25.13 18.6 65.4 74 13.9 57
08:25 1022 30.18 852 25.16 18.7 65.6 73 13.7 56.7
08:30 1022 30.18 852 25.16 19 66.2 72 13.8 56.8
08:35 1022 30.18 852 25.16 19.3 66.7 71 13.9 56.9
08:40 1022 30.18 852 25.16 19.5 67.1 70 14 57.3
08:45 1022 30.18 852 25.16 19.7 67.5 70 14.2 57.5
08:50 1023 30.21 852 25.16 20 68 67 13.8 56.9
08:55 1023 30.21 852 25.16 20.2 68.3 66 13.8 56.8
09:00 1023 30.21 852 25.16 20.4 68.6 66 13.9 57.1
09:05 1023 30.21 852 25.16 20.3 68.6 67 14 57.3
09:10 1023 30.21 852 25.16 20.3 68.6 67 14.1 57.4
09:15 1023 30.21 852 25.16 20.5 68.8 65 13.9 57
09:20 1023 30.21 852 25.16 20.7 69.3 65 14 57.2
09:25 1023 30.21 852 25.16 20.8 69.4 64 13.9 57
09:30 1023 30.21 852 25.16 20.9 69.5 63 13.8 56.8
09:35 1023 30.21 852 25.16 20.8 69.4 62 13.5 56.2
09:40 1023 30.21 852 25.16 20.8 69.4 64 13.7 56.7
09:45 1023 30.21 852 25.16 21 69.8 63 13.7 56.6
09:50 1023 30.21 852 25.16 20.7 69.2 64 13.6 56.5
09:55 1023 30.21 852 25.16 20.6 69.1 64 13.6 56.5
10:00 1023 30.21 852 25.16 20.8 69.4 64 13.9 57
10:05 1023 30.21 852 25.16 20.9 69.6 64 13.9 57.1
10:10 1023 30.21 852 25.16 21.1 70 63 14 57.2
10:15 1023 30.21 852 25.16 21.2 70.2 64 14.2 57.6
10:20 1023 30.21 852 25.16 21.2 70.2 64 14.2 57.5
10:25 1022 30.18 852 25.16 21.3 70.4 63 14.2 57.6
10:30 1023 30.21 852 25.16 21.8 71.3 61 14.2 57.6
10:35 1023 30.21 852 25.16 21.8 71.2 65 15 58.9
10:40 1022 30.18 852 25.16 21.1 70 66 14.6 58.3
10:45 1022 30.18 852 25.16 21.2 70.2 65 14.6 58.2
10:50 1022 30.18 852 25.16 21.2 70.1 65 14.5 58.1
10:55 1022 30.18 852 25.16 21.3 70.4 65 14.5 58.1
11:00 1022 30.18 852 25.16 21.7 71 63 14.5 58.1
11:05 1022 30.18 852 25.16 22.1 71.9 62 14.7 58.4
11:10 1022 30.18 852 25.16 22.1 71.8 62 14.6 58.2
11:15 1022 30.18 851 25.13 21.8 71.3 63 14.6 58.3
11:20 1022 30.18 851 25.13 21.9 71.3 63 14.6 58.2
11:25 1022 30.18 851 25.13 22.2 72 62 14.7 58.5
11:30 1022 30.18 851 25.13 22.1 71.7 62 14.5 58.1
11:35 1022 30.18 851 25.13 22 71.7 63 14.8 58.6
11:40 1022 30.18 852 25.16 22 71.5 63 14.8 58.6
11:45 1022 30.18 851 25.13 21.9 71.4 64 14.9 58.9
11:50 1022 30.18 852 25.16 21.8 71.2 63 14.6 58.2
11:55 1022 30.18 852 25.16 21.9 71.5 63 14.7 58.5
12:00 1022 30.18 852 25.16 21.9 71.3 63 14.6 58.3
12:05 1022 30.18 851 25.13 22.1 71.8 61 14.4 58
12:10 1022 30.18 851 25.13 22.4 72.2 60 14.4 58
12:15 1022 30.18 851 25.13 22.1 71.8 60 14.2 57.6
12:20 1022 30.18 851 25.13 22.2 71.9 58 13.6 56.4
12:25 1022 30.18 851 25.13 22.2 72 60 14.3 57.8
12:30 1022 30.18 851 25.13 22.3 72.2 60 14.3 57.7
12:35 1022 30.18 851 25.13 22.5 72.4 60 14.3 57.8
12:40 1022 30.18 851 25.13 22.5 72.5 61 14.6 58.3
12:45 1022 30.18 851 25.13 22.3 72.1 62 14.7 58.5
12:50 1022 30.18 851 25.13 22.5 72.6 60 14.4 57.9
12:55 1022 30.18 851 25.13 22 71.6 61 14.2 57.6
13:00 1022 30.18 851 25.13 22.4 72.2 60 14.3 57.8
13:05 1022 30.18 851 25.13 22.4 72.3 59 14.1 57.4
13:10 1022 30.18 851 25.13 22 71.5 60 13.9 57.1
13:15 1022 30.18 851 25.13 21.9 71.4 60 13.9 57
13:20 1022 30.18 851 25.13 22.4 72.2 57 13.6 56.5
13:25 1022 30.18 851 25.13 22.4 72.4 58 13.9 57.1
13:30 1022 30.18 851 25.13 22.9 73.1 57 14.1 57.4
13:35 1022 30.18 851 25.13 22.6 72.7 59 14.2 57.6
13:40 1022 30.18 851 25.13 22.3 72.2 60 14.3 57.8
13:45 1022 30.18 851 25.13 22.1 71.8 60 14 57.2
13:50 1022 30.18 851 25.13 21.8 71.2 61 14.1 57.3
13:55 1022 30.18 851 25.13 21.6 70.8 62 14.2 57.5
14:00 1022 30.18 851 25.13 21.8 71.2 62 14.2 57.5
14:05 1022 30.18 851 25.13 22.1 71.7 61 14.2 57.5
14:10 1022 30.18 851 25.13 22.1 71.8 59 13.8 56.8
14:15 1022 30.18 851 25.13 21.7 71 62 14.2 57.6
14:20 1022 30.18 851 25.13 21.5 70.7 62 14 57.3
14:25 1022 30.18 851 25.13 21.7 71.1 61 14 57.2
14:30 1022 30.18 851 25.13 21.9 71.3 61 14.2 57.6
14:35 1022 30.18 851 25.13 21.4 70.5 63 14 57.3
14:40 1022 30.18 851 25.13 21.6 70.9 59 13.4 56.2
14:45 1022 30.18 851 25.13 21.5 70.7 60 13.4 56.1
14:50 1022 30.18 851 25.13 21.1 70 62 13.7 56.7
14:55 1022 30.18 851 25.13 20.7 69.2 64 13.7 56.7
15:00 1022 30.18 851 25.13 20.3 68.6 65 13.7 56.7
15:05 1022 30.18 851 25.13 20.1 68.1 65 13.4 56
15:10 1022 30.18 851 25.13 19.9 67.8 66 13.5 56.3
15:15 1022 30.18 851 25.13 19.7 67.5 67 13.4 56.1
15:20 1022 30.18 851 25.13 19.6 67.3 67 13.5 56.4
15:25 1022 30.18 851 25.13 19.5 67.1 68 13.5 56.2
15:30 1022 30.18 851 25.13 19.3 66.8 68 13.3 55.9
15:35 1022 30.18 851 25.13 19.3 66.7 68 13.3 55.9
15:40 1022 30.18 851 25.13 19.2 66.5 68 13.3 55.9
15:45 1022 30.18 851 25.13 19.2 66.5 67 13.1 55.5
15:50 1022 30.18 851 25.13 19.2 66.5 68 13.3 55.9
15:55 1022 30.18 851 25.13 19.2 66.5 67 13.1 55.5
16:00 1022 30.18 851 25.13 19.2 66.6 68 13.2 55.7
16:05 1022 30.18 851 25.13 19.2 66.6 68 13.3 56
16:10 1022 30.18 851 25.13 19.3 66.7 69 13.5 56.4
16:15 1022 30.18 851 25.13 19.2 66.6 69 13.6 56.4
16:20 1022 30.18 851 25.13 19.5 67.1 69 13.7 56.6
16:25 1022 30.18 851 25.13 19.7 67.5 66 13.3 56
16:30 1022 30.18 851 25.13 20.1 68.1 65 13.5 56.3
16:35 1022 30.18 851 25.13 20.2 68.3 65 13.4 56.1
16:40 1022 30.18 851 25.13 20.6 69.1 62 13.3 55.9
16:45 1021 30.15 851 25.13 21.1 69.9 61 13.3 55.9
16:50 1022 30.18 851 25.13 21.1 70.1 61 13.3 56
16:55 1021 30.15 851 25.13 21.5 70.8 59 13.3 55.9
17:00 1021 30.15 851 25.13 21.8 71.3 57 13.1 55.6
17:05 1021 30.15 851 25.13 21.6 71 57 12.9 55.3
17:10 1021 30.15 851 25.13 21.8 71.3 56 12.9 55.2
17:15 1021 30.15 851 25.13 22.1 71.8 55 12.7 54.9
17:20 1021 30.15 851 25.13 22.4 72.4 53 12.5 54.5
17:25 1021 30.15 851 25.13 22.5 72.5 52 12.2 53.9
17:30 1021 30.15 850 25.1 22.5 72.4 51 12.1 53.7
17:35 1021 30.15 850 25.1 22.5 72.4 51 12.1 53.8
17:40 1021 30.15 850 25.1 22.7 72.8 50 12 53.5
17:45 1021 30.15 850 25.1 22.8 73 51 12.3 54.2
17:50 1021 30.15 850 25.1 22.6 72.6 52 12.5 54.5
17:55 1021 30.15 850 25.1 22.7 72.8 52 12.6 54.6
18:00 1021 30.15 850 25.1 22.8 73 52 12.5 54.5
18:05 1021 30.15 850 25.1 22.9 73.2 52 12.7 54.9
18:10 1021 30.15 850 25.1 23 73.5 52 12.9 55.2
18:15 1021 30.15 850 25.1 22.9 73.2 53 13 55.4
18:20 1021 30.15 850 25.1 22.7 72.9 54 13.2 55.7
18:25 1021 30.15 850 25.1 22.3 72.2 55 13.1 55.6
18:30 1021 30.15 850 25.1 22.2 72 57 13.4 56.2
18:35 1021 30.15 850 25.1 21.9 71.5 58 13.4 56.1
18:40 1021 30.15 850 25.1 21.7 71 59 13.4 56.2
18:45 1021 30.15 850 25.1 21.5 70.7 59 13.4 56.1
18:50 1021 30.15 850 25.1 21.5 70.7 59 13.3 56
18:55 1021 30.15 850 25.1 21.5 70.8 59 13.2 55.7
19:00 1021 30.15 850 25.1 21.6 70.8 60 13.5 56.2
19:05 1021 30.15 850 25.1 21.5 70.6 60 13.4 56.2
19:10 1021 30.15 850 25.1 21.4 70.5 61 13.6 56.5
19:15 1021 30.15 850 25.1 21.3 70.3 62 13.8 56.8
19:20 1021 30.15 850 25.1 21 69.8 63 13.7 56.7
19:25 1021 30.15 850 25.1 20.8 69.4 63 13.5 56.3
19:30 1021 30.15 850 25.1 20.6 69.1 63 13.4 56.2
19:35 1021 30.15 850 25.1 20.5 68.9 63 13.4 56.2
19:40 1021 30.15 850 25.1 20.4 68.7 64 13.5 56.3
19:45 1021 30.15 850 25.1 20.3 68.6 65 13.6 56.4
19:50 1021 30.15 851 25.13 20.2 68.3 65 13.5 56.3
19:55 1021 30.15 851 25.13 20.2 68.3 66 13.6 56.5
20:00 1021 30.15 851 25.13 20 68.1 66 13.7 56.6
20:05 1021 30.15 851 25.13 19.9 67.9 67 13.7 56.7
20:10 1021 30.15 851 25.13 19.9 67.7 68 13.9 57
20:15 1021 30.15 851 25.13 19.8 67.6 68 13.9 57
20:20 1021 30.15 851 25.13 19.8 67.6 69 14 57.2
20:25 1021 30.15 850 25.1 19.7 67.4 70 14 57.2
20:30 1021 30.15 850 25.1 19.6 67.3 70 14 57.2
20:35 1021 30.15 850 25.1 19.6 67.3 70 14.1 57.4
20:40 1021 30.15 850 25.1 19.5 67.1 71 14.2 57.5
20:45 1021 30.15 851 25.13 19.4 67 72 14.2 57.6
20:50 1021 30.15 851 25.13 19.4 66.9 72 14.3 57.7
20:55 1021 30.15 851 25.13 19.3 66.8 73 14.4 57.9
21:00 1021 30.15 851 25.13 19.3 66.7 73 14.4 57.9
21:05 1021 30.15 851 25.13 19.2 66.6 74 14.5 58.1
21:10 1021 30.15 851 25.13 19.1 66.4 74 14.5 58.1
21:15 1021 30.15 850 25.1 19.1 66.3 75 14.5 58.1
21:20 1021 30.15 850 25.1 19.1 66.3 75 14.6 58.2
21:25 1021 30.15 850 25.1 19 66.2 75 14.5 58.1
21:30 1021 30.15 851 25.13 19.1 66.4 74 14.4 57.9
21:35 1021 30.15 850 25.1 19.2 66.5 73 14.3 57.7
21:40 1021 30.15 850 25.1 19.3 66.7 72 14.2 57.6
21:45 1021 30.15 851 25.13 19.3 66.8 72 14.1 57.4
21:50 1021 30.15 851 25.13 19.5 67.1 71 14.1 57.4
21:55 1021 30.15 851 25.13 19.6 67.3 70 14.1 57.3
22:00 1021 30.15 851 25.13 19.6 67.2 70 14 57.3
22:05 1021 30.15 851 25.13 19.5 67.2 71 14.2 57.6
22:10 1021 30.15 851 25.13 19.5 67 72 14.3 57.7
22:15 1021 30.15 851 25.13 19.3 66.8 72 14.3 57.7
22:20 1021 30.15 851 25.13 19.3 66.7 73 14.3 57.8
22:25 1021 30.15 851 25.13 19.2 66.6 73 14.3 57.8
22:30 1021 30.15 851 25.13 19.2 66.6 73 14.3 57.7
22:35 1022 30.18 851 25.13 19.2 66.6 73 14.3 57.7
22:40 1022 30.18 851 25.13 19.2 66.6 73 14.3 57.7
22:45 1022 30.18 851 25.13 19.3 66.7 73 14.3 57.7
22:50 1022 30.18 851 25.13 19.3 66.7 72 14.3 57.7
22:55 1022 30.18 851 25.13 19.2 66.6 73 14.4 57.8
23:00 1022 30.18 851 25.13 19.1 66.4 74 14.4 57.9
23:05 1022 30.18 851 25.13 19.1 66.4 74 14.4 58
23:10 1022 30.18 851 25.13 19 66.3 74 14.4 57.9
23:15 1022 30.18 851 25.13 19 66.3 74 14.4 57.9
23:20 1022 30.18 851 25.13 19 66.1 75 14.4 58
23:25 1022 30.18 851 25.13 18.9 66 73 14.1 57.4
23:30 1022 30.18 851 25.13 18.9 66 73 14 57.2
23:35 1022 30.18 851 25.13 18.9 66.1 74 14.2 57.5
23:40 1022 30.18 851 25.13 18.9 66.1 73 14.1 57.3
23:45 1022 30.18 851 25.13 18.9 66 74 14.2 57.5
23:50 1022 30.18 851 25.13 18.9 66 74 14.3 57.8
23:55 1022 30.18 851 25.13 18.9 65.9 74 14.2 57.5
24:00 1022 30.18 851 25.13 18.8 65.8 75 14.4 58